Time;durP1;ratioP1;P1;durP2;ratioP2;P2;SDS_P1;SDS_P2;PMS_P1;PMS_P2;Temp;Humidity;BMP_temperature;BMP_pressure;BME280_temperature;BME280_humidity;BME280_pressure;Samples;Min_cycle;Max_cycle;Signal;HPM_P1;HPM_P2
2024/01/10 00:09:27;;;;;;;2.40;2.08;;;;;;;15.25;38.57;103033.56;21001228;28;20504;-64
2024/01/10 00:19:29;;;;;;;2.17;1.98;;;;;;;15.21;38.59;103033.72;21003123;28;20068;-67
2024/01/10 00:29:30;;;;;;;2.33;2.00;;;;;;;15.07;38.34;102990.50;21017097;28;20509;-65
2024/01/10 00:39:32;;;;;;;2.67;2.30;;;;;;;15.17;38.48;103005.25;21009852;28;20067;-64
2024/01/10 00:49:34;;;;;;;2.35;2.10;;;;;;;15.17;38.38;103002.59;20992373;28;20048;-64
2024/01/10 00:59:36;;;;;;;2.83;2.22;;;;;;;15.15;38.29;103006.25;21009189;28;20105;-64
2024/01/10 01:09:38;;;;;;;2.35;2.15;;;;;;;15.14;37.72;103002.72;21002364;28;20044;-64
2024/01/10 01:19:40;;;;;;;2.80;2.30;;;;;;;15.15;37.86;102993.72;20998556;28;20176;-64
2024/01/10 01:29:41;;;;;;;2.65;2.15;;;;;;;15.13;37.94;102987.56;21009233;28;20515;-64
2024/01/10 01:39:43;;;;;;;4.10;2.40;;;;;;;15.11;37.50;102986.75;21003878;28;20056;-66
2024/01/10 01:49:45;;;;;;;2.75;2.10;;;;;;;15.12;37.51;102976.88;21003624;28;20048;-66
2024/01/10 01:59:47;;;;;;;3.58;2.25;;;;;;;15.11;37.65;102980.50;21020885;28;20055;-66
2024/01/10 02:09:49;;;;;;;2.40;2.13;;;;;;;15.11;37.33;102984.06;21002868;28;20469;-66
2024/01/10 02:20:10;;;;;;;2.72;2.10;;;;;;;15.10;37.39;102993.06;21002024;28;20056;-67
2024/01/10 02:30:12;;;;;;;2.33;2.08;;;;;;;15.10;37.22;102986.81;21034598;28;20393;-66
2024/01/10 02:40:14;;;;;;;3.20;2.50;;;;;;;15.08;36.84;102981.53;21016306;28;20044;-66
2024/01/10 02:50:16;;;;;;;2.45;1.92;;;;;;;15.09;37.14;102980.59;20998590;28;20428;-66
2024/01/10 03:00:18;;;;;;;3.30;2.38;;;;;;;15.11;37.04;102967.97;21010769;28;20071;-66
2024/01/10 03:10:20;;;;;;;2.30;1.90;;;;;;;15.14;37.03;102967.84;21007237;28;20044;-66
2024/01/10 03:20:22;;;;;;;4.20;2.47;;;;;;;15.08;36.88;102960.06;21016064;28;20462;-66
2024/01/10 03:30:24;;;;;;;3.22;2.10;;;;;;;15.21;36.91;102969.31;21014318;28;20117;-66
2024/01/10 03:40:26;;;;;;;3.30;2.55;;;;;;;15.07;36.72;102936.88;20993632;28;20462;-67
2024/01/10 03:50:28;;;;;;;2.97;2.42;;;;;;;15.27;36.27;102949.38;21029938;28;20093;-66
2024/01/10 04:00:30;;;;;;;3.00;2.53;;;;;;;15.30;36.54;102951.03;20987802;28;20043;-67
2024/01/10 04:10:32;;;;;;;3.08;2.60;;;;;;;15.33;36.52;102945.53;21017001;28;20051;-66
2024/01/10 04:20:34;;;;;;;3.17;2.35;;;;;;;15.30;36.73;102949.25;21033689;28;20510;-67
2024/01/10 04:30:35;;;;;;;2.78;2.35;;;;;;;15.36;36.50;102940.03;21013191;28;20138;-67
2024/01/10 04:40:37;;;;;;;2.47;2.22;;;;;;;15.34;36.36;102925.81;20996330;28;20043;-68
2024/01/10 04:50:39;;;;;;;3.17;2.50;;;;;;;15.39;36.09;102929.16;21012725;28;20542;-68
2024/01/10 05:00:41;;;;;;;3.35;2.63;;;;;;;15.48;35.94;102927.88;21013479;28;20052;-66
2024/01/10 05:10:43;;;;;;;3.05;2.60;;;;;;;15.61;35.90;102925.50;21026934;28;20051;-67
2024/01/10 05:20:45;;;;;;;2.97;2.20;;;;;;;15.56;35.84;102914.09;21014262;28;20144;-64
2024/01/10 05:30:47;;;;;;;2.80;2.50;;;;;;;15.62;35.69;102909.28;21003961;28;20051;-64
2024/01/10 05:40:48;;;;;;;3.13;2.65;;;;;;;15.70;35.61;102906.25;20996497;28;20052;-64
2024/01/10 05:50:50;;;;;;;3.67;2.88;;;;;;;15.73;35.50;102903.44;21020985;28;20058;-64
2024/01/10 06:00:52;;;;;;;3.58;2.63;;;;;;;15.72;35.54;102896.31;21026952;28;20040;-64
2024/01/10 06:10:54;;;;;;;3.08;2.55;;;;;;;15.77;35.81;102885.38;21007777;28;20127;-64
2024/01/10 06:20:56;;;;;;;3.40;2.55;;;;;;;15.73;35.45;102895.38;21013804;28;20044;-64
2024/01/10 06:30:58;;;;;;;3.08;2.70;;;;;;;15.81;35.33;102906.59;20991396;28;20060;-65
2024/01/10 06:40:59;;;;;;;2.67;2.47;;;;;;;15.81;35.20;102903.94;20983475;28;20105;-64
2024/01/10 06:51:01;;;;;;;2.50;2.30;;;;;;;15.82;35.24;102904.81;20987379;28;20058;-64
2024/01/10 07:01:06;;;;;;;2.90;2.42;;;;;;;15.81;35.53;102920.03;20997520;28;20052;-65
2024/01/10 07:11:08;;;;;;;3.55;2.55;;;;;;;15.83;35.34;102919.09;21018537;28;20044;-65
2024/01/10 07:21:10;;;;;;;2.80;2.47;;;;;;;15.88;35.23;102917.09;21036162;28;20050;-64
2024/01/10 07:31:12;;;;;;;2.95;2.45;;;;;;;15.90;34.94;102923.25;20997073;28;20054;-64
2024/01/10 07:41:14;;;;;;;3.67;2.97;;;;;;;15.86;35.25;102916.25;21016524;28;20044;-64
2024/01/10 07:51:16;;;;;;;2.63;2.28;;;;;;;15.88;35.31;102925.16;21000097;28;20122;-64
2024/01/10 08:01:18;;;;;;;3.45;2.28;;;;;;;15.43;35.21;102846.69;20982340;28;20051;-65
2024/01/10 08:11:20;;;;;;;2.60;2.30;;;;;;;15.89;35.00;102911.66;21002167;28;20403;-65
2024/01/10 08:21:22;;;;;;;3.30;2.60;;;;;;;15.92;35.06;102908.81;21017053;28;20177;-65
2024/01/10 08:31:24;;;;;;;3.05;2.50;;;;;;;15.95;34.94;102921.25;20998874;28;20067;-66
2024/01/10 08:41:25;;;;;;;2.70;2.22;;;;;;;16.13;35.57;102921.28;20975591;28;20055;-64
2024/01/10 08:51:27;;;;;;;2.67;2.25;;;;;;;16.83;35.08;102926.75;20988739;28;20518;-66
2024/01/10 09:01:30;;;;;;;3.10;2.38;;;;;;;17.29;34.65;102917.22;20993374;28;20044;-67
2024/01/10 09:11:33;;;;;;;2.85;2.40;;;;;;;17.54;34.15;102917.59;20989406;28;20048;-67
2024/01/10 09:21:40;;;;;;;2.50;2.30;;;;;;;17.76;33.81;102924.50;20994901;28;20492;-67
2024/01/10 09:31:43;;;;;;;2.60;2.33;;;;;;;17.87;33.70;102907.72;21016261;28;20578;-66
2024/01/10 09:41:50;;;;;;;2.60;2.40;;;;;;;17.94;33.67;102917.22;20982398;28;20044;-66
2024/01/10 09:51:59;;;;;;;3.30;2.75;;;;;;;17.93;33.68;102925.38;21007032;28;20036;-67
2024/01/10 10:02:04;;;;;;;3.10;2.58;;;;;;;17.87;33.71;102925.72;21039167;28;20056;-66
2024/01/10 10:12:06;;;;;;;3.35;2.58;;;;;;;17.86;33.75;102918.59;21040533;28;20075;-67
2024/01/10 10:22:11;;;;;;;4.13;3.22;;;;;;;17.88;33.59;102911.28;21023987;28;20067;-69
2024/01/10 10:32:13;;;;;;;4.18;3.08;;;;;;;17.96;33.89;102903.63;21028124;28;20052;-66
2024/01/10 10:42:16;;;;;;;3.92;2.55;;;;;;;18.04;33.96;102906.78;20997541;28;20055;-67
2024/01/10 10:52:19;;;;;;;3.65;2.72;;;;;;;18.13;34.38;102899.16;20994547;28;20048;-67
2024/01/10 11:02:24;;;;;;;3.03;2.42;;;;;;;18.54;34.39;102883.19;21003435;28;20044;-67
2024/01/10 11:13:11;;;;;;;3.50;2.70;;;;;;;20.14;33.20;102902.94;21024056;28;20052;-66
2024/01/10 11:23:39;;;;;;;3.75;2.60;;;;;;;20.90;32.88;102896.09;21022996;28;20527;-68
2024/01/10 11:33:43;;;;;;;3.70;2.95;;;;;;;21.72;32.34;102895.72;21013689;28;20083;-67
2024/01/10 11:43:45;;;;;;;3.73;2.77;;;;;;;20.95;32.44;102870.44;21011443;28;20651;-67
2024/01/10 11:53:47;;;;;;;2.90;2.47;;;;;;;19.59;33.75;102863.31;20991998;28;20056;-67
2024/01/10 12:03:51;;;;;;;3.35;2.67;;;;;;;19.04;34.33;102852.38;21009776;28;20205;-67
2024/01/10 12:14:14;;;;;;;3.63;2.60;;;;;;;18.81;34.16;102851.94;21005013;28;20052;-67
2024/01/10 12:24:16;;;;;;;3.90;2.70;;;;;;;18.73;34.28;102838.06;21022696;28;20120;-67
2024/01/10 12:34:19;;;;;;;3.97;2.83;;;;;;;18.68;34.49;102839.22;20949793;28;20056;-67
2024/01/10 12:44:22;;;;;;;2.85;2.25;;;;;;;19.70;32.85;102821.13;20956032;28;20131;-67
2024/01/10 12:54:24;;;;;;;4.18;2.75;;;;;;;20.03;32.19;102821.69;20937555;28;20067;-67
2024/01/10 13:04:26;;;;;;;2.47;2.28;;;;;;;19.63;32.56;102805.41;20919798;28;20535;-67
2024/01/10 13:14:30;;;;;;;3.20;2.42;;;;;;;19.44;32.49;102809.31;20935794;28;20068;-67
2024/01/10 13:24:32;;;;;;;2.65;2.22;;;;;;;19.12;32.50;102801.47;20935546;28;20046;-67
2024/01/10 13:34:33;;;;;;;2.40;2.03;;;;;;;18.61;32.83;102797.41;20952994;28;20052;-67
2024/01/10 13:44:35;;;;;;;2.60;2.20;;;;;;;18.32;33.30;102794.63;20934799;28;20045;-67
2024/01/10 13:54:37;;;;;;;3.03;2.65;;;;;;;18.15;33.33;102794.78;20934093;28;20129;-67
2024/01/10 14:04:39;;;;;;;3.00;2.20;;;;;;;18.03;33.38;102786.47;21010404;28;20050;-67
2024/01/10 14:14:41;;;;;;;2.85;2.30;;;;;;;18.01;33.46;102798.31;21004539;28;20460;-65
2024/01/10 14:24:46;;;;;;;3.67;2.33;;;;;;;17.93;34.01;102799.59;21001252;28;20051;-68
2024/01/10 14:34:48;;;;;;;3.37;2.33;;;;;;;17.91;34.28;102806.91;20985944;28;20142;-69
2024/01/10 14:44:50;;;;;;;3.85;2.38;;;;;;;18.02;35.32;102800.91;21034786;28;20385;-69
2024/01/10 14:54:52;;;;;;;2.05;1.70;;;;;;;18.08;35.48;102811.31;20998100;28;20040;-68
2024/01/10 15:04:54;;;;;;;2.83;2.10;;;;;;;17.96;35.69;102785.06;20999331;28;20156;-67
2024/01/10 15:14:59;;;;;;;3.40;2.00;;;;;;;18.03;35.51;102801.78;20982207;28;20487;-67
2024/01/10 15:25:01;;;;;;;;;;;;;;;18.07;35.25;102803.34;21028906;28;20051;-68
2024/01/10 15:35:04;;;;;;;3.65;2.45;;;;;;;18.07;35.15;102814.97;21031226;28;19977;-67
2024/01/10 15:45:08;;;;;;;2.83;2.40;;;;;;;18.13;35.14;102823.69;21017195;28;20048;-67
2024/01/10 15:55:10;;;;;;;3.33;2.60;;;;;;;18.11;34.93;102823.75;20976816;28;20066;-68
2024/01/10 16:05:12;;;;;;;3.60;2.78;;;;;;;17.82;35.49;102826.28;20994417;28;20055;-67
2024/01/10 16:15:15;;;;;;;4.25;2.35;;;;;;;17.63;36.62;102827.34;20970017;28;20056;-70
2024/01/10 16:25:17;;;;;;;2.83;2.05;;;;;;;17.35;37.18;102817.28;20964433;28;20082;-69
2024/01/10 16:35:19;;;;;;;3.72;2.47;;;;;;;17.23;37.82;102826.91;20953412;28;20419;-65
2024/01/10 16:45:21;;;;;;;3.17;2.65;;;;;;;17.11;39.27;102831.13;20961524;28;20044;-66
2024/01/10 16:55:23;;;;;;;4.20;2.80;;;;;;;16.95;40.95;102837.31;20988117;28;20598;-67
2024/01/10 17:05:25;;;;;;;5.97;3.40;;;;;;;16.93;41.52;102843.72;20954487;28;20158;-67
2024/01/10 17:15:27;;;;;;;5.80;3.03;;;;;;;17.15;44.16;102853.38;20962690;28;20072;-71
2024/01/10 17:25:29;;;;;;;3.97;2.80;;;;;;;17.51;45.83;102855.84;20967418;28;20052;-71
2024/01/10 17:35:30;;;;;;;4.10;2.80;;;;;;;17.66;45.98;102858.59;20950735;28;20090;-68
2024/01/10 17:45:32;;;;;;;5.40;3.20;;;;;;;17.60;45.05;102876.00;21013976;28;20182;-65
2024/01/10 17:55:34;;;;;;;4.15;2.65;;;;;;;17.49;44.61;102879.28;20988590;28;20048;-65
2024/01/10 18:05:38;;;;;;;3.42;2.55;;;;;;;17.38;44.14;102881.72;20992004;28;20071;-66
2024/01/10 18:15:40;;;;;;;3.40;2.88;;;;;;;17.33;43.16;102883.78;20979193;28;20147;-64
2024/01/10 18:25:42;;;;;;;2.78;2.42;;;;;;;17.28;42.50;102885.88;20967146;28;20052;-64
2024/01/10 18:35:44;;;;;;;3.22;2.67;;;;;;;17.24;42.28;102888.72;20979874;28;20040;-64
2024/01/10 18:45:46;;;;;;;2.83;2.53;;;;;;;17.17;42.14;102890.00;20973921;28;20095;-66
2024/01/10 18:55:48;;;;;;;3.03;2.70;;;;;;;17.15;41.71;102888.34;21007323;28;20052;-66
2024/01/10 19:05:49;;;;;;;3.90;2.70;;;;;;;17.03;41.52;102904.22;20966265;28;21587;-65
2024/01/10 19:15:51;;;;;;;3.47;2.97;;;;;;;16.98;41.29;102917.00;21003655;28;20059;-66
2024/01/10 19:25:53;;;;;;;5.13;2.97;;;;;;;16.94;40.78;102915.41;20964836;28;20063;-65
2024/01/10 19:35:56;;;;;;;4.00;3.20;;;;;;;16.77;40.33;102935.13;20969441;28;20095;-65
2024/01/10 19:45:58;;;;;;;3.85;3.28;;;;;;;16.61;40.00;102935.06;20967211;28;20052;-65
2024/01/10 19:55:59;;;;;;;3.25;2.75;;;;;;;16.55;39.78;102940.72;20977275;28;20127;-65
2024/01/10 20:06:02;;;;;;;3.50;2.80;;;;;;;16.41;39.82;102953.03;20956828;28;20087;-65
2024/01/10 20:16:04;;;;;;;5.15;3.50;;;;;;;16.44;39.21;102965.47;21007076;28;20116;-66
2024/01/10 20:26:08;;;;;;;4.38;3.53;;;;;;;16.36;38.91;102973.91;21016199;28;20084;-65
2024/01/10 20:36:10;;;;;;;4.07;3.45;;;;;;;16.28;38.88;102962.66;21001889;28;20151;-66
2024/01/10 20:46:13;;;;;;;3.85;3.15;;;;;;;16.22;38.77;102972.78;20957595;28;20056;-65
2024/01/10 20:56:15;;;;;;;4.93;3.80;;;;;;;16.23;40.07;102984.38;20999685;28;20055;-65
2024/01/10 21:06:17;;;;;;;6.30;3.90;;;;;;;16.24;41.15;102978.06;20984207;28;20052;-65
2024/01/10 21:16:21;;;;;;;5.40;4.00;;;;;;;16.18;41.29;102975.69;20976583;28;20047;-65
2024/01/10 21:26:22;;;;;;;5.60;3.50;;;;;;;16.13;41.39;102989.34;20996353;28;20447;-65
2024/01/10 21:36:24;;;;;;;4.90;3.70;;;;;;;16.04;40.93;102987.06;21026735;28;20046;-65
2024/01/10 21:46:26;;;;;;;3.97;3.40;;;;;;;16.01;41.04;102996.19;21012530;28;20056;-65
2024/01/10 21:56:30;;;;;;;4.85;3.85;;;;;;;15.99;40.57;103006.13;21027636;28;20058;-66
2024/01/10 22:06:32;;;;;;;4.53;3.78;;;;;;;15.91;40.43;102995.72;21023307;28;20090;-65
2024/01/10 22:16:34;;;;;;;4.50;3.50;;;;;;;15.89;40.18;103002.09;21038257;28;20048;-66
2024/01/10 22:26:36;;;;;;;4.43;3.65;;;;;;;15.76;39.89;102997.28;21023139;28;21258;-65
2024/01/10 22:36:37;;;;;;;4.63;3.58;;;;;;;15.80;39.77;103004.25;21018246;28;20048;-65
2024/01/10 22:46:39;;;;;;;4.20;3.30;;;;;;;15.77;39.50;103016.97;21002627;28;20496;-66
2024/01/10 22:56:42;;;;;;;4.03;3.63;;;;;;;15.76;39.19;103020.59;20998221;28;20055;-66
2024/01/10 23:06:44;;;;;;;3.65;3.30;;;;;;;15.72;39.06;103027.91;21004127;28;20048;-66
2024/01/10 23:16:46;;;;;;;4.20;3.80;;;;;;;15.70;38.99;103037.84;21022127;28;20500;-66
2024/01/10 23:26:49;;;;;;;3.70;3.40;;;;;;;15.65;38.57;103037.19;21021031;28;20055;-66
2024/01/10 23:36:51;;;;;;;4.28;3.85;;;;;;;15.62;38.59;103032.81;21007082;28;20045;-66
2024/01/10 23:46:52;;;;;;;4.13;3.67;;;;;;;15.59;38.38;103026.72;20980961;28;20052;-66
2024/01/10 23:56:54;;;;;;;3.97;3.58;;;;;;;15.55;38.52;103030.47;21014216;28;20408;-66
